Time;durP1;ratioP1;P1;durP2;ratioP2;P2;SDS_P1;SDS_P2;PMS_P1;PMS_P2;Temp;Humidity;BMP_temperature;BMP_pressure;BME280_temperature;BME280_humidity;BME280_pressure;Samples;Min_cycle;Max_cycle;Signal;HPM_P1;HPM_P2
2021/04/24 00:00:31;;;;;;;9.70;7.27;;;;;;;;;;5089623;28;20261;-84
2021/04/24 00:02:58;;;;;;;12.90;7.07;;;;;;;;;;5110290;28;20229;-79
2021/04/24 00:05:30;;;;;;;9.20;7.00;;;;;;;;;;5088817;28;20234;-79
2021/04/24 00:07:59;;;;;;;11.50;7.00;;;;;;;;;;5081219;28;20228;-79
2021/04/24 00:10:28;;;;;;;9.47;5.80;;;;;;;;;;5115263;28;20232;-79
2021/04/24 00:12:56;;;;;;;8.97;5.77;;;;;;;;;;5093865;28;20736;-79
2021/04/24 00:15:24;;;;;;;10.17;6.40;;;;;;;;;;5107410;28;20247;-79
2021/04/24 00:17:52;;;;;;;10.00;7.20;;;;;;;;;;5107180;28;20242;-80
2021/04/24 00:20:22;;;;;;;10.13;6.50;;;;;;;;;;5105486;28;20249;-81
2021/04/24 00:22:50;;;;;;;9.10;5.93;;;;;;;;;;5106694;28;20231;-79
2021/04/24 00:25:19;;;;;;;9.47;6.77;;;;;;;;;;5090205;28;20225;-78
2021/04/24 00:27:46;;;;;;;10.90;6.57;;;;;;;;;;5085381;28;20237;-79
2021/04/24 00:30:17;;;;;;;22.47;12.90;;;;;;;;;;5112262;28;20230;-78
2021/04/24 00:32:46;;;;;;;22.27;13.70;;;;;;;;;;5110631;28;20746;-79
2021/04/24 00:35:17;;;;;;;22.13;15.37;;;;;;;;;;5077212;28;20226;-81
2021/04/24 00:37:45;;;;;;;14.40;10.17;;;;;;;;;;5108637;28;20219;-79
2021/04/24 00:40:13;;;;;;;11.37;7.47;;;;;;;;;;5091357;28;20232;-80
2021/04/24 00:42:41;;;;;;;8.33;6.17;;;;;;;;;;5091654;28;20226;-79
2021/04/24 00:45:11;;;;;;;10.37;5.53;;;;;;;;;;5113439;28;20225;-81
2021/04/24 00:47:38;;;;;;;9.30;5.47;;;;;;;;;;5097142;28;20222;-80
2021/04/24 00:50:09;;;;;;;9.67;5.90;;;;;;;;;;5104737;28;20238;-79
2021/04/24 00:52:37;;;;;;;12.67;5.80;;;;;;;;;;5084895;28;20709;-79
2021/04/24 00:55:06;;;;;;;9.27;5.50;;;;;;;;;;5107878;28;20227;-79
2021/04/24 00:57:34;;;;;;;8.83;6.50;;;;;;;;;;5082900;28;20239;-78
2021/04/24 01:00:03;;;;;;;12.63;6.97;;;;;;;;;;5112235;28;20230;-79
2021/04/24 01:02:31;;;;;;;13.47;6.93;;;;;;;;;;5085810;28;20223;-80
2021/04/24 01:04:58;;;;;;;10.57;6.63;;;;;;;;;;5109969;27;20218;-79
2021/04/24 01:07:27;;;;;;;8.30;5.80;;;;;;;;;;5106789;27;20229;-79
2021/04/24 01:09:54;;;;;;;10.97;7.13;;;;;;;;;;5106115;28;20615;-80
2021/04/24 01:12:22;;;;;;;10.33;6.27;;;;;;;;;;5111699;28;20230;-79
2021/04/24 01:14:49;;;;;;;10.40;6.87;;;;;;;;;;5113417;28;20228;-79
2021/04/24 01:17:17;;;;;;;7.80;6.30;;;;;;;;;;5091009;28;20218;-80
2021/04/24 01:19:45;;;;;;;10.43;6.17;;;;;;;;;;5092701;28;20230;-80
2021/04/24 01:22:13;;;;;;;6.87;5.00;;;;;;;;;;5103236;27;20599;-79
2021/04/24 01:24:41;;;;;;;13.47;7.67;;;;;;;;;;5103759;28;20219;-80
2021/04/24 01:27:09;;;;;;;15.90;9.27;;;;;;;;;;5112371;28;20256;-80
2021/04/24 01:29:39;;;;;;;8.90;6.33;;;;;;;;;;5095756;28;20222;-78
2021/04/24 01:32:07;;;;;;;10.57;6.70;;;;;;;;;;5077287;28;20234;-79
2021/04/24 01:34:35;;;;;;;10.93;6.50;;;;;;;;;;5090907;28;20228;-79
2021/04/24 01:37:03;;;;;;;11.67;6.90;;;;;;;;;;5112066;28;20241;-82
2021/04/24 01:39:32;;;;;;;9.37;7.10;;;;;;;;;;5098200;28;20233;-81
2021/04/24 01:41:59;;;;;;;8.60;5.53;;;;;;;;;;5074039;28;20231;-79
2021/04/24 01:44:27;;;;;;;10.07;6.47;;;;;;;;;;5095568;28;20234;-79
2021/04/24 01:46:54;;;;;;;7.50;5.87;;;;;;;;;;5115727;28;20229;-80
2021/04/24 01:49:22;;;;;;;7.83;5.47;;;;;;;;;;5115070;28;20229;-80
2021/04/24 01:51:50;;;;;;;8.43;5.37;;;;;;;;;;5114409;28;20229;-79
2021/04/24 01:54:17;;;;;;;7.70;5.60;;;;;;;;;;5111312;27;20219;-79
2021/04/24 01:56:48;;;;;;;7.90;5.03;;;;;;;;;;5091749;28;20228;-80
2021/04/24 01:59:16;;;;;;;8.07;5.63;;;;;;;;;;5120788;27;20226;-81
2021/04/24 02:01:47;;;;;;;8.67;4.90;;;;;;;;;;5115297;28;20223;-80
2021/04/24 02:04:18;;;;;;;7.97;5.10;;;;;;;;;;5099669;27;20221;-80
2021/04/24 02:06:46;;;;;;;5.57;4.93;;;;;;;;;;5119508;27;20213;-80
2021/04/24 02:09:16;;;;;;;8.27;5.17;;;;;;;;;;5097326;27;20238;-79
2021/04/24 02:12:05;;;;;;;9.37;5.23;;;;;;;;;;5105486;28;20225;-79
2021/04/24 02:14:38;;;;;;;8.07;5.17;;;;;;;;;;5095939;28;20424;-81
2021/04/24 02:17:07;;;;;;;10.70;5.20;;;;;;;;;;5101298;27;20225;-79
2021/04/24 02:19:39;;;;;;;8.83;5.00;;;;;;;;;;5100927;28;20241;-79
2021/04/24 02:22:08;;;;;;;7.63;4.97;;;;;;;;;;5115510;28;20234;-78
2021/04/24 02:24:42;;;;;;;9.37;5.10;;;;;;;;;;5105636;28;20725;-79
2021/04/24 02:27:12;;;;;;;7.83;5.57;;;;;;;;;;5097272;27;20221;-79
2021/04/24 02:29:40;;;;;;;10.60;5.43;;;;;;;;;;5100978;27;20228;-81
2021/04/24 02:32:09;;;;;;;7.60;4.90;;;;;;;;;;5094649;28;20591;-78
2021/04/24 02:34:38;;;;;;;8.53;5.17;;;;;;;;;;5111961;27;20222;-79
2021/04/24 02:37:06;;;;;;;6.43;4.80;;;;;;;;;;5072943;28;20217;-79
2021/04/24 02:39:35;;;;;;;9.60;5.33;;;;;;;;;;5084006;28;20225;-79
2021/04/24 02:42:03;;;;;;;8.23;5.00;;;;;;;;;;5093953;28;20206;-79
2021/04/24 02:44:33;;;;;;;7.10;4.87;;;;;;;;;;5083795;28;20225;-80
2021/04/24 02:47:01;;;;;;;6.80;5.27;;;;;;;;;;5091204;28;20233;-79
2021/04/24 02:49:29;;;;;;;7.73;4.97;;;;;;;;;;5093062;28;20239;-79
2021/04/24 02:51:58;;;;;;;7.97;5.40;;;;;;;;;;5087194;27;20240;-79
2021/04/24 02:54:25;;;;;;;9.70;5.63;;;;;;;;;;5113204;28;20256;-79
2021/04/24 02:56:54;;;;;;;7.07;5.03;;;;;;;;;;5080801;28;20230;-79
2021/04/24 02:59:21;;;;;;;6.40;5.10;;;;;;;;;;5096910;27;20225;-79
2021/04/24 03:01:51;;;;;;;6.50;4.63;;;;;;;;;;5101267;28;20241;-79
2021/04/24 03:04:19;;;;;;;9.83;5.50;;;;;;;;;;5115683;27;20835;-81
2021/04/24 03:06:47;;;;;;;8.77;5.50;;;;;;;;;;5079449;28;20237;-80
2021/04/24 03:09:15;;;;;;;8.37;5.13;;;;;;;;;;5068036;27;20237;-79
2021/04/24 03:11:43;;;;;;;9.13;5.40;;;;;;;;;;5092711;28;20243;-78
2021/04/24 03:14:11;;;;;;;8.10;5.17;;;;;;;;;;5111261;27;20240;-79
2021/04/24 03:16:39;;;;;;;7.30;5.43;;;;;;;;;;5109218;27;20226;-79
2021/04/24 03:19:08;;;;;;;14.87;6.13;;;;;;;;;;5107332;27;20715;-80
2021/04/24 03:21:36;;;;;;;10.00;5.93;;;;;;;;;;5095066;28;20222;-78
2021/04/24 03:24:05;;;;;;;7.97;4.90;;;;;;;;;;5105922;28;20221;-79
2021/04/24 03:26:32;;;;;;;12.13;5.27;;;;;;;;;;5108258;28;20241;-80
2021/04/24 03:29:00;;;;;;;9.20;4.97;;;;;;;;;;5102218;28;20221;-82
2021/04/24 03:31:28;;;;;;;9.80;5.57;;;;;;;;;;5102571;28;20225;-79
2021/04/24 03:33:56;;;;;;;8.67;5.40;;;;;;;;;;5107027;28;20738;-79
2021/04/24 03:36:25;;;;;;;8.17;5.17;;;;;;;;;;5107269;28;20221;-81
2021/04/24 03:38:53;;;;;;;7.67;5.60;;;;;;;;;;5094308;28;20232;-78
2021/04/24 03:41:21;;;;;;;7.33;5.10;;;;;;;;;;5079759;28;20605;-80
2021/04/24 03:43:48;;;;;;;8.07;5.53;;;;;;;;;;5103205;28;20225;-79
2021/04/24 03:46:17;;;;;;;8.27;4.73;;;;;;;;;;5096332;28;20224;-80
2021/04/24 03:48:44;;;;;;;10.97;5.10;;;;;;;;;;5107142;28;20226;-79
2021/04/24 03:51:12;;;;;;;8.70;5.40;;;;;;;;;;5100253;28;20221;-80
2021/04/24 03:53:40;;;;;;;8.03;5.40;;;;;;;;;;5105862;28;20230;-79
2021/04/24 03:56:08;;;;;;;9.27;5.40;;;;;;;;;;5104233;27;20233;-80
2021/04/24 03:58:36;;;;;;;9.57;5.50;;;;;;;;;;5113546;27;20240;-80
2021/04/24 04:01:03;;;;;;;7.23;5.50;;;;;;;;;;5097333;28;20244;-80
2021/04/24 04:03:31;;;;;;;9.73;6.17;;;;;;;;;;5109807;28;20225;-79
2021/04/24 04:05:58;;;;;;;9.77;5.60;;;;;;;;;;5108830;28;20224;-79
2021/04/24 04:08:26;;;;;;;9.97;5.50;;;;;;;;;;5072514;28;20230;-79
2021/04/24 04:10:56;;;;;;;8.50;5.70;;;;;;;;;;5108819;27;20705;-81
2021/04/24 04:13:23;;;;;;;7.37;5.13;;;;;;;;;;5111038;28;20233;-80
2021/04/24 04:15:51;;;;;;;7.73;6.13;;;;;;;;;;5112862;27;20225;-80
2021/04/24 04:18:19;;;;;;;11.57;6.20;;;;;;;;;;5086918;28;20226;-78
2021/04/24 04:20:49;;;;;;;9.80;7.37;;;;;;;;;;5084483;28;20237;-79
2021/04/24 04:23:22;;;;;;;8.57;6.50;;;;;;;;;;5102022;27;20236;-80
2021/04/24 04:25:50;;;;;;;10.60;5.80;;;;;;;;;;5099943;28;20233;-79
2021/04/24 04:28:20;;;;;;;7.27;5.10;;;;;;;;;;5081379;28;20221;-78
2021/04/24 04:30:48;;;;;;;9.27;5.70;;;;;;;;;;5091657;28;20234;-79
2021/04/24 04:33:16;;;;;;;8.20;5.60;;;;;;;;;;5080425;28;20228;-79
2021/04/24 04:35:44;;;;;;;9.20;5.63;;;;;;;;;;5080090;28;20630;-79
2021/04/24 04:38:11;;;;;;;11.83;6.27;;;;;;;;;;5093570;28;20237;-78
2021/04/24 04:40:40;;;;;;;7.67;5.60;;;;;;;;;;5087437;28;20561;-78
2021/04/24 04:43:07;;;;;;;11.37;6.10;;;;;;;;;;5088887;28;20222;-79
2021/04/24 04:45:36;;;;;;;8.27;5.70;;;;;;;;;;5109396;28;20224;-79
2021/04/24 04:48:05;;;;;;;8.40;5.70;;;;;;;;;;5109864;27;20606;-78
2021/04/24 04:50:35;;;;;;;8.70;5.93;;;;;;;;;;5085599;28;20234;-79
2021/04/24 04:53:03;;;;;;;9.93;5.97;;;;;;;;;;5100178;27;20230;-78
2021/04/24 04:55:31;;;;;;;8.20;5.40;;;;;;;;;;5107790;28;20694;-78
2021/04/24 04:57:59;;;;;;;8.50;5.93;;;;;;;;;;5100467;27;20233;-78
2021/04/24 05:00:27;;;;;;;8.53;5.93;;;;;;;;;;5099714;28;20244;-80
2021/04/24 05:02:55;;;;;;;13.33;6.20;;;;;;;;;;5093910;27;20624;-79
2021/04/24 05:05:23;;;;;;;9.33;5.43;;;;;;;;;;5113205;27;20228;-78
2021/04/24 05:07:50;;;;;;;7.70;5.57;;;;;;;;;;5115880;27;20236;-80
2021/04/24 05:10:22;;;;;;;10.17;5.93;;;;;;;;;;5098945;28;20711;-79
2021/04/24 05:12:50;;;;;;;7.13;5.63;;;;;;;;;;5103255;28;20713;-78
2021/04/24 05:15:18;;;;;;;10.47;5.67;;;;;;;;;;5111770;28;20213;-78
2021/04/24 05:17:45;;;;;;;9.03;5.83;;;;;;;;;;5105975;28;20209;-78
2021/04/24 05:20:15;;;;;;;9.83;5.53;;;;;;;;;;5105386;28;20223;-81
2021/04/24 05:22:45;;;;;;;8.53;5.33;;;;;;;;;;5131368;28;20215;-80
2021/04/24 05:25:14;;;;;;;8.23;5.63;;;;;;;;;;5118622;27;20221;-79
2021/04/24 05:27:44;;;;;;;8.40;5.63;;;;;;;;;;5114083;28;20569;-78
2021/04/24 05:30:13;;;;;;;7.17;5.30;;;;;;;;;;5096054;28;20229;-78
2021/04/24 05:32:40;;;;;;;10.23;5.60;;;;;;;;;;5108036;28;20229;-78
2021/04/24 05:35:09;;;;;;;9.00;6.00;;;;;;;;;;5094827;28;20233;-79
2021/04/24 05:37:37;;;;;;;11.40;5.37;;;;;;;;;;5105431;28;20226;-80
2021/04/24 05:40:07;;;;;;;10.03;5.90;;;;;;;;;;5107876;28;20230;-78
2021/04/24 05:42:35;;;;;;;9.17;5.50;;;;;;;;;;5091835;28;20702;-79
2021/04/24 05:45:10;;;;;;;6.33;5.27;;;;;;;;;;5088473;28;20226;-78
2021/04/24 05:47:38;;;;;;;13.33;5.97;;;;;;;;;;5099588;28;20702;-81
2021/04/24 05:50:06;;;;;;;12.40;6.37;;;;;;;;;;5091671;27;20222;-79
2021/04/24 05:52:34;;;;;;;7.43;5.30;;;;;;;;;;5104113;28;20713;-79
2021/04/24 05:55:04;;;;;;;8.87;5.60;;;;;;;;;;5091112;28;20238;-79
2021/04/24 05:57:32;;;;;;;12.40;5.70;;;;;;;;;;5089400;28;20222;-79
2021/04/24 05:59:59;;;;;;;9.10;5.90;;;;;;;;;;5099821;28;20237;-81
2021/04/24 06:02:27;;;;;;;12.23;6.03;;;;;;;;;;5103414;28;20220;-79
2021/04/24 06:04:56;;;;;;;7.00;5.43;;;;;;;;;;5106487;27;20253;-79
2021/04/24 06:07:23;;;;;;;7.97;5.67;;;;;;;;;;5111932;28;20702;-79
2021/04/24 06:09:51;;;;;;;10.80;6.20;;;;;;;;;;5107114;27;20225;-79
2021/04/24 06:12:19;;;;;;;8.93;6.03;;;;;;;;;;5103973;28;20226;-80
2021/04/24 06:14:51;;;;;;;7.23;5.90;;;;;;;;;;5089231;28;20302;-79
2021/04/24 06:17:19;;;;;;;13.73;6.63;;;;;;;;;;5111934;28;20225;-80
2021/04/24 06:19:46;;;;;;;8.80;5.50;;;;;;;;;;5107823;28;20719;-78
2021/04/24 06:22:14;;;;;;;12.87;6.87;;;;;;;;;;5108726;28;20244;-79
2021/04/24 06:24:42;;;;;;;9.87;6.43;;;;;;;;;;5105995;28;20222;-79
2021/04/24 06:27:09;;;;;;;12.80;6.60;;;;;;;;;;5109517;28;20225;-79
2021/04/24 06:29:38;;;;;;;10.33;5.70;;;;;;;;;;5096844;28;20222;-78
2021/04/24 06:32:06;;;;;;;10.80;5.23;;;;;;;;;;5100053;27;20227;-79
2021/04/24 06:34:34;;;;;;;11.97;6.03;;;;;;;;;;5098187;28;20731;-79
2021/04/24 06:37:02;;;;;;;11.83;5.37;;;;;;;;;;5083245;27;20227;-82
2021/04/24 06:39:30;;;;;;;8.43;5.37;;;;;;;;;;5082950;28;20235;-81
2021/04/24 06:41:57;;;;;;;13.80;5.90;;;;;;;;;;5091539;28;20704;-81
2021/04/24 06:44:25;;;;;;;10.90;6.10;;;;;;;;;;5109332;28;20242;-83
2021/04/24 06:46:53;;;;;;;10.60;5.60;;;;;;;;;;5091827;28;20221;-82
2021/04/24 06:49:21;;;;;;;11.70;6.40;;;;;;;;;;5095295;28;20244;-83
2021/04/24 06:51:49;;;;;;;8.57;5.27;;;;;;;;;;5104691;28;20220;-83
2021/04/24 06:54:16;;;;;;;10.97;6.53;;;;;;;;;;5111065;28;20229;-81
2021/04/24 06:56:44;;;;;;;12.23;5.97;;;;;;;;;;5111312;28;20228;-83
2021/04/24 06:59:12;;;;;;;8.97;5.20;;;;;;;;;;5109693;27;20394;-84
2021/04/24 07:01:39;;;;;;;8.43;5.77;;;;;;;;;;5104895;28;20225;-81
2021/04/24 07:04:07;;;;;;;9.67;6.07;;;;;;;;;;5113350;28;20237;-80
2021/04/24 07:06:35;;;;;;;11.00;6.07;;;;;;;;;;5090840;28;20224;-81
2021/04/24 07:09:03;;;;;;;10.17;6.30;;;;;;;;;;5110974;28;20221;-82
2021/04/24 07:11:34;;;;;;;9.80;6.87;;;;;;;;;;5104839;28;20214;-80
2021/04/24 07:14:01;;;;;;;10.10;6.57;;;;;;;;;;5079332;27;20222;-80
2021/04/24 07:16:29;;;;;;;11.87;6.80;;;;;;;;;;5089487;28;20229;-80
2021/04/24 07:18:56;;;;;;;12.60;6.77;;;;;;;;;;5115781;28;20232;-82
2021/04/24 07:21:25;;;;;;;11.57;6.60;;;;;;;;;;5093099;28;20222;-80
2021/04/24 07:23:53;;;;;;;11.00;6.37;;;;;;;;;;5107263;28;20221;-80
2021/04/24 07:26:20;;;;;;;10.00;6.37;;;;;;;;;;5103460;28;20229;-80
2021/04/24 07:28:48;;;;;;;23.17;7.67;;;;;;;;;;5069691;28;20226;-83
2021/04/24 07:31:16;;;;;;;11.50;7.00;;;;;;;;;;5084994;27;20231;-81
2021/04/24 07:33:44;;;;;;;12.40;7.10;;;;;;;;;;5103835;27;20236;-80
2021/04/24 07:36:12;;;;;;;13.57;6.40;;;;;;;;;;5108482;27;20457;-82
2021/04/24 07:38:40;;;;;;;14.57;6.80;;;;;;;;;;5081006;28;20742;-80
2021/04/24 07:41:08;;;;;;;11.23;6.73;;;;;;;;;;5075213;28;20238;-79
2021/04/24 07:43:36;;;;;;;13.23;7.00;;;;;;;;;;5109588;28;20213;-80
2021/04/24 07:46:04;;;;;;;13.83;6.90;;;;;;;;;;5089963;27;20233;-80
2021/04/24 07:48:32;;;;;;;11.53;6.90;;;;;;;;;;5072370;27;20744;-80
2021/04/24 07:50:59;;;;;;;9.43;6.77;;;;;;;;;;5087237;27;20229;-80
2021/04/24 07:53:27;;;;;;;10.30;7.23;;;;;;;;;;5095586;28;20229;-80
2021/04/24 07:55:55;;;;;;;10.97;7.13;;;;;;;;;;5093030;27;20505;-82
2021/04/24 07:58:23;;;;;;;13.27;8.20;;;;;;;;;;5065105;28;20730;-82
2021/04/24 08:00:51;;;;;;;13.03;6.93;;;;;;;;;;5073324;28;20233;-81
2021/04/24 08:03:20;;;;;;;11.10;7.37;;;;;;;;;;5093969;28;20591;-80
2021/04/24 08:05:47;;;;;;;12.13;7.33;;;;;;;;;;5064890;28;20230;-80
2021/04/24 08:08:15;;;;;;;9.53;6.37;;;;;;;;;;5073218;28;20221;-82
2021/04/24 08:10:42;;;;;;;14.10;7.77;;;;;;;;;;5082602;27;20234;-80
2021/04/24 08:13:11;;;;;;;13.03;7.70;;;;;;;;;;5056421;28;20237;-80
2021/04/24 08:15:39;;;;;;;10.20;6.93;;;;;;;;;;5077138;28;20232;-81
2021/04/24 08:18:06;;;;;;;10.80;6.63;;;;;;;;;;5094993;27;20895;-80
2021/04/24 08:20:34;;;;;;;9.83;7.70;;;;;;;;;;5098896;28;20766;-81
2021/04/24 08:23:02;;;;;;;12.33;7.57;;;;;;;;;;5070697;28;20592;-81
2021/04/24 08:25:29;;;;;;;10.63;8.03;;;;;;;;;;5072103;28;20230;-79
2021/04/24 08:27:57;;;;;;;10.87;8.23;;;;;;;;;;5107902;27;20247;-79
2021/04/24 08:30:26;;;;;;;11.37;8.00;;;;;;;;;;5096432;28;20232;-80
2021/04/24 08:32:54;;;;;;;10.50;7.83;;;;;;;;;;5072913;28;20229;-82
2021/04/24 08:35:21;;;;;;;12.20;8.00;;;;;;;;;;5090764;28;20233;-79
2021/04/24 08:37:49;;;;;;;12.77;7.90;;;;;;;;;;5082980;27;20238;-79
2021/04/24 08:40:17;;;;;;;12.17;7.73;;;;;;;;;;5072808;28;20241;-79
2021/04/24 08:42:48;;;;;;;8.47;6.87;;;;;;;;;;5070861;28;20226;-79
2021/04/24 08:45:17;;;;;;;10.17;6.90;;;;;;;;;;5085139;28;20611;-79
2021/04/24 08:47:48;;;;;;;13.87;8.37;;;;;;;;;;5083718;28;20221;-80
2021/04/24 08:50:18;;;;;;;9.67;7.23;;;;;;;;;;5077130;28;20229;-80
2021/04/24 08:52:46;;;;;;;12.60;7.80;;;;;;;;;;5092525;28;20229;-79
2021/04/24 08:55:18;;;;;;;11.43;7.37;;;;;;;;;;5093958;27;20217;-79
2021/04/24 08:57:47;;;;;;;11.27;8.47;;;;;;;;;;5077891;28;20632;-80
2021/04/24 09:00:17;;;;;;;11.87;6.80;;;;;;;;;;5063718;28;20234;-78
2021/04/24 09:02:46;;;;;;;12.63;7.97;;;;;;;;;;5085559;28;20218;-79
2021/04/24 09:05:15;;;;;;;12.03;7.70;;;;;;;;;;5079373;28;20699;-79
2021/04/24 09:07:43;;;;;;;11.30;7.40;;;;;;;;;;5108104;27;20225;-80
2021/04/24 09:10:15;;;;;;;15.00;8.10;;;;;;;;;;5088212;28;20229;-80
2021/04/24 09:12:46;;;;;;;11.57;7.80;;;;;;;;;;5065444;28;20236;-79
2021/04/24 09:15:17;;;;;;;12.27;7.63;;;;;;;;;;5071668;28;20219;-79
2021/04/24 09:17:50;;;;;;;10.57;8.13;;;;;;;;;;5067288;28;20222;-79
2021/04/24 09:20:19;;;;;;;15.07;8.27;;;;;;;;;;5088759;28;20229;-82
2021/04/24 09:22:57;;;;;;;11.70;7.70;;;;;;;;;;5091719;28;20245;-81
2021/04/24 09:25:32;;;;;;;14.90;8.03;;;;;;;;;;5109503;28;20221;-80
2021/04/24 09:28:00;;;;;;;12.63;8.20;;;;;;;;;;5096496;28;20236;-78
2021/04/24 09:30:30;;;;;;;12.97;7.97;;;;;;;;;;5090307;28;20230;-78
2021/04/24 09:33:06;;;;;;;11.27;7.47;;;;;;;;;;5099194;28;20234;-79
2021/04/24 09:35:55;;;;;;;13.43;8.13;;;;;;;;;;5103375;27;20236;-79
2021/04/24 09:38:27;;;;;;;10.97;8.33;;;;;;;;;;5112608;28;20710;-80
2021/04/24 09:41:03;;;;;;;10.53;7.53;;;;;;;;;;5095562;28;20410;-80
2021/04/24 09:44:02;;;;;;;10.10;8.00;;;;;;;;;;5104255;28;20239;-79
2021/04/24 09:46:32;;;;;;;11.67;8.17;;;;;;;;;;5102049;28;20237;-78
2021/04/24 09:49:12;;;;;;;11.97;8.43;;;;;;;;;;5091063;28;20237;-81
2021/04/24 09:51:42;;;;;;;15.87;8.63;;;;;;;;;;5090908;28;20229;-80
2021/04/24 09:54:10;;;;;;;12.57;8.90;;;;;;;;;;5098176;28;20226;-81
2021/04/24 09:56:38;;;;;;;11.40;8.30;;;;;;;;;;5092870;28;20229;-80
2021/04/24 09:59:08;;;;;;;15.43;9.77;;;;;;;;;;5089797;28;20233;-80
2021/04/24 10:01:38;;;;;;;16.10;11.07;;;;;;;;;;5094085;28;20214;-78
2021/04/24 10:04:12;;;;;;;18.53;10.40;;;;;;;;;;5086280;28;20221;-81
2021/04/24 10:06:41;;;;;;;13.20;9.27;;;;;;;;;;5086688;28;20231;-80
2021/04/24 10:09:20;;;;;;;10.60;8.80;;;;;;;;;;5057016;28;20616;-79
2021/04/24 10:11:51;;;;;;;12.03;9.13;;;;;;;;;;5093022;28;20240;-79
2021/04/24 10:14:30;;;;;;;13.27;9.53;;;;;;;;;;5086669;28;20218;-78
2021/04/24 10:16:58;;;;;;;14.50;9.93;;;;;;;;;;5098910;28;20230;-79
2021/04/24 10:19:29;;;;;;;12.20;8.87;;;;;;;;;;5100569;28;20226;-77
2021/04/24 10:21:57;;;;;;;13.50;9.93;;;;;;;;;;5098064;28;20241;-79
2021/04/24 10:24:25;;;;;;;32.03;25.13;;;;;;;;;;5093554;28;20226;-78
2021/04/24 10:26:54;;;;;;;12.37;9.60;;;;;;;;;;5093118;28;20230;-78
2021/04/24 10:29:22;;;;;;;12.93;10.25;;;;;;;;;;5069329;28;20567;-77
2021/04/24 10:31:51;;;;;;;13.40;9.48;;;;;;;;;;5094642;28;20225;-79
2021/04/24 10:34:19;;;;;;;12.60;10.60;;;;;;;;;;5092285;28;20238;-77
2021/04/24 10:36:48;;;;;;;12.70;9.90;;;;;;;;;;5079022;28;20235;-78
2021/04/24 10:39:22;;;;;;;12.18;10.35;;;;;;;;;;5104098;28;20233;-78
2021/04/24 10:41:58;;;;;;;11.88;10.63;;;;;;;;;;5102986;28;20749;-78
2021/04/24 10:44:42;;;;;;;15.55;10.68;;;;;;;;;;5083972;28;20233;-78
2021/04/24 10:47:10;;;;;;;13.05;10.45;;;;;;;;;;5119251;27;20221;-77
2021/04/24 10:49:52;;;;;;;12.30;10.05;;;;;;;;;;5099595;28;20259;-78
2021/04/24 10:52:22;;;;;;;13.82;11.55;;;;;;;;;;5097220;28;20222;-76
2021/04/24 10:55:19;;;;;;;12.10;10.50;;;;;;;;;;5110423;28;20226;-78
2021/04/24 10:57:53;;;;;;;13.25;10.20;;;;;;;;;;5115829;28;20232;-77
2021/04/24 11:00:23;;;;;;;15.02;10.55;;;;;;;;;;5124169;28;20229;-77
2021/04/24 11:02:52;;;;;;;11.98;10.00;;;;;;;;;;5125454;28;20229;-77
2021/04/24 11:05:26;;;;;;;12.93;10.93;;;;;;;;;;5126852;28;20243;-77
2021/04/24 11:08:22;;;;;;;12.05;10.85;;;;;;;;;;5104594;28;20235;-78
2021/04/24 11:10:59;;;;;;;16.58;10.40;;;;;;;;;;5107990;28;20232;-77
2021/04/24 11:13:29;;;;;;;14.48;10.45;;;;;;;;;;5089432;28;20229;-78
2021/04/24 11:15:58;;;;;;;12.15;10.85;;;;;;;;;;5092391;27;20222;-78
2021/04/24 11:18:26;;;;;;;12.48;11.18;;;;;;;;;;5103440;28;20233;-76
2021/04/24 11:20:56;;;;;;;14.63;11.48;;;;;;;;;;5086048;28;20241;-80
2021/04/24 11:24:00;;;;;;;12.68;10.45;;;;;;;;;;5095999;28;20229;-78
2021/04/24 11:26:47;;;;;;;13.40;11.20;;;;;;;;;;5096842;28;20221;-79
2021/04/24 11:29:21;;;;;;;13.32;11.38;;;;;;;;;;5100267;28;20232;-78
2021/04/24 11:31:57;;;;;;;12.48;11.05;;;;;;;;;;5094793;28;20236;-80
2021/04/24 11:34:41;;;;;;;12.90;10.70;;;;;;;;;;5093571;27;20224;-78
2021/04/24 11:37:28;;;;;;;11.90;10.55;;;;;;;;;;5142679;27;20218;-78
2021/04/24 11:40:32;;;;;;;12.27;9.95;;;;;;;;;;5120989;27;20217;-80
2021/04/24 11:43:12;;;;;;;12.25;11.02;;;;;;;;;;5116867;27;20205;-80
2021/04/24 11:45:52;;;;;;;11.57;10.40;;;;;;;;;;5111084;28;20201;-80
2021/04/24 11:48:58;;;;;;;14.93;11.63;;;;;;;;;;5118401;28;20224;-80
2021/04/24 11:51:30;;;;;;;12.00;10.70;;;;;;;;;;5101155;28;20213;-79
2021/04/24 11:54:04;;;;;;;12.90;11.55;;;;;;;;;;5121377;27;20225;-79
2021/04/24 11:56:39;;;;;;;12.77;11.40;;;;;;;;;;5121518;28;20213;-79
2021/04/24 11:59:08;;;;;;;12.43;10.68;;;;;;;;;;5115372;28;20218;-79
2021/04/24 12:01:37;;;;;;;12.20;10.85;;;;;;;;;;5109736;28;20209;-79
2021/04/24 12:04:05;;;;;;;11.70;10.55;;;;;;;;;;5127839;27;20229;-79
2021/04/24 12:06:38;;;;;;;12.82;10.82;;;;;;;;;;5101691;28;20226;-79
2021/04/24 12:09:10;;;;;;;11.88;10.70;;;;;;;;;;5091355;28;20226;-79
2021/04/24 12:11:40;;;;;;;13.25;10.27;;;;;;;;;;5071831;28;20597;-79
2021/04/24 12:14:08;;;;;;;10.63;9.52;;;;;;;;;;5103137;27;20695;-79
2021/04/24 12:16:47;;;;;;;12.07;10.48;;;;;;;;;;5109221;28;20232;-79
2021/04/24 12:19:32;;;;;;;11.32;9.63;;;;;;;;;;5108399;28;20246;-79
2021/04/24 12:22:11;;;;;;;14.38;12.98;;;;;;;;;;5091005;28;20232;-79
2021/04/24 12:24:57;;;;;;;10.63;9.52;;;;;;;;;;5103539;28;20221;-79
2021/04/24 12:27:33;;;;;;;10.75;9.25;;;;;;;;;;5088340;28;20217;-79
2021/04/24 12:30:04;;;;;;;12.10;10.27;;;;;;;;;;5104677;27;20229;-79
2021/04/24 12:32:34;;;;;;;11.02;9.25;;;;;;;;;;5107778;28;20225;-79
2021/04/24 12:35:10;;;;;;;11.20;10.10;;;;;;;;;;5107185;28;20237;-79
2021/04/24 12:37:39;;;;;;;10.90;9.70;;;;;;;;;;5104596;28;20236;-79
2021/04/24 12:40:10;;;;;;;11.30;9.98;;;;;;;;;;5103621;27;20312;-79
2021/04/24 12:42:38;;;;;;;10.85;9.73;;;;;;;;;;5097054;27;20714;-79
2021/04/24 12:45:10;;;;;;;9.77;8.85;;;;;;;;;;5089213;27;20225;-79
2021/04/24 12:47:37;;;;;;;11.13;9.95;;;;;;;;;;5087025;28;20224;-79
2021/04/24 12:50:09;;;;;;;11.23;9.57;;;;;;;;;;5093611;28;20240;-79
2021/04/24 12:52:46;;;;;;;10.82;9.82;;;;;;;;;;5099673;27;20252;-79
2021/04/24 12:55:15;;;;;;;10.65;9.65;;;;;;;;;;5106035;27;21181;-80
2021/04/24 12:57:51;;;;;;;11.30;10.20;;;;;;;;;;5082305;28;20233;-80
2021/04/24 13:00:21;;;;;;;11.10;9.95;;;;;;;;;;5098105;28;20222;-79
2021/04/24 13:02:49;;;;;;;9.98;8.98;;;;;;;;;;5092526;27;20230;-79
2021/04/24 13:05:16;;;;;;;12.30;10.23;;;;;;;;;;5092739;27;20725;-79
2021/04/24 13:07:43;;;;;;;11.48;10.38;;;;;;;;;;5098069;27;20746;-79
2021/04/24 13:10:19;;;;;;;11.07;9.93;;;;;;;;;;5100037;27;20233;-79
2021/04/24 13:12:54;;;;;;;9.90;8.95;;;;;;;;;;5098643;28;20244;-79
2021/04/24 13:15:22;;;;;;;9.02;8.23;;;;;;;;;;5097452;28;20225;-79
2021/04/24 13:17:49;;;;;;;9.40;7.97;;;;;;;;;;5089419;28;20259;-79
2021/04/24 13:20:28;;;;;;;9.32;7.20;;;;;;;;;;5104004;27;20225;-80
2021/04/24 13:22:56;;;;;;;10.18;8.35;;;;;;;;;;5094889;28;20228;-79
2021/04/24 13:25:32;;;;;;;9.25;7.40;;;;;;;;;;5099043;28;20218;-79
2021/04/24 13:28:01;;;;;;;10.50;7.55;;;;;;;;;;5088477;28;20706;-79
2021/04/24 13:30:29;;;;;;;8.00;7.20;;;;;;;;;;5093231;28;20226;-79
2021/04/24 13:32:58;;;;;;;8.70;7.90;;;;;;;;;;5098090;28;20721;-80
2021/04/24 13:35:43;;;;;;;9.60;7.63;;;;;;;;;;5088503;28;20229;-79
2021/04/24 13:38:11;;;;;;;8.00;7.28;;;;;;;;;;5088162;28;20240;-79
2021/04/24 13:40:39;;;;;;;7.35;6.75;;;;;;;;;;5089817;28;20221;-79
2021/04/24 13:43:07;;;;;;;7.22;6.53;;;;;;;;;;5097430;27;20591;-80
2021/04/24 13:45:36;;;;;;;7.57;6.53;;;;;;;;;;5103744;27;20217;-79
2021/04/24 13:48:07;;;;;;;7.45;6.75;;;;;;;;;;5101659;27;20233;-79
2021/04/24 13:50:36;;;;;;;9.23;6.22;;;;;;;;;;5091704;27;20226;-79
2021/04/24 13:53:09;;;;;;;7.97;6.40;;;;;;;;;;5086314;27;20222;-79
2021/04/24 13:55:36;;;;;;;8.50;5.80;;;;;;;;;;5098909;27;20233;-80
2021/04/24 13:58:06;;;;;;;7.28;6.57;;;;;;;;;;5107455;27;20675;-77
2021/04/24 14:00:35;;;;;;;6.93;6.22;;;;;;;;;;5105033;28;22101;-79
2021/04/24 14:03:03;;;;;;;6.20;5.57;;;;;;;;;;5108542;27;20225;-79
2021/04/24 14:05:31;;;;;;;8.20;6.47;;;;;;;;;;5076070;28;20221;-78
2021/04/24 14:07:59;;;;;;;7.70;7.00;;;;;;;;;;5097326;27;20248;-80
2021/04/24 14:10:26;;;;;;;6.28;5.63;;;;;;;;;;5092446;27;20224;-79
2021/04/24 14:12:54;;;;;;;5.85;5.35;;;;;;;;;;5102506;27;20218;-80
2021/04/24 14:15:27;;;;;;;6.57;5.55;;;;;;;;;;5104153;28;20218;-79
2021/04/24 14:17:56;;;;;;;7.15;6.50;;;;;;;;;;5106381;27;20540;-79
2021/04/24 14:20:34;;;;;;;6.32;5.78;;;;;;;;;;5107958;27;20229;-79
2021/04/24 14:23:05;;;;;;;6.93;6.22;;;;;;;;;;5096804;27;20593;-80
2021/04/24 14:25:33;;;;;;;7.95;6.18;;;;;;;;;;5113185;27;20584;-79
2021/04/24 14:28:01;;;;;;;9.18;7.70;;;;;;;;;;5109074;27;20213;-78
2021/04/24 14:30:29;;;;;;;7.18;6.35;;;;;;;;;;5096088;28;20238;-79
2021/04/24 14:32:57;;;;;;;6.82;6.00;;;;;;;;;;5083592;27;20226;-79
2021/04/24 14:35:25;;;;;;;7.15;6.43;;;;;;;;;;5096697;27;20228;-80
2021/04/24 14:37:52;;;;;;;6.22;5.72;;;;;;;;;;5099922;27;20230;-79
2021/04/24 14:40:21;;;;;;;6.20;5.70;;;;;;;;;;5106092;27;20236;-80
2021/04/24 14:42:49;;;;;;;6.82;6.22;;;;;;;;;;5096301;28;20757;-80
2021/04/24 14:45:17;;;;;;;6.18;5.68;;;;;;;;;;5089701;28;20241;-80
2021/04/24 14:47:44;;;;;;;6.63;5.80;;;;;;;;;;5068250;28;20243;-80
2021/04/24 14:50:15;;;;;;;6.65;6.05;;;;;;;;;;5093810;27;20233;-79